Time;durP1;ratioP1;P1;durP2;ratioP2;P2;SDS_P1;SDS_P2;PMS_P1;PMS_P2;Temp;Humidity;BMP_temperature;BMP_pressure;BME280_temperature;BME280_humidity;BME280_pressure;Samples;Min_cycle;Max_cycle;Signal;HPM_P1;HPM_P2
2021/09/02 00:01:16;;;;;;;6.35;4.47;;;10.50;99.90;;;;;;4984373;28;20117;-82
2021/09/02 00:03:41;;;;;;;6.63;4.55;;;10.50;99.90;;;;;;5002418;28;20046;-82
2021/09/02 00:06:07;;;;;;;7.25;4.63;;;10.50;99.90;;;;;;4985980;28;20030;-82
2021/09/02 00:08:33;;;;;;;7.78;4.50;;;10.50;99.90;;;;;;4975258;28;20467;-83
2021/09/02 00:10:58;;;;;;;6.60;4.07;;;10.50;99.90;;;;;;4963243;28;20030;-82
2021/09/02 00:13:24;;;;;;;6.32;4.63;;;10.50;99.90;;;;;;4983447;28;20046;-82
2021/09/02 00:15:50;;;;;;;6.18;4.15;;;10.50;99.90;;;;;;4974829;28;20100;-82
2021/09/02 00:18:16;;;;;;;4.35;3.35;;;10.50;99.90;;;;;;4947733;28;20500;-83
2021/09/02 00:20:41;;;;;;;7.95;4.18;;;10.50;99.90;;;;;;4974478;28;20519;-81
2021/09/02 00:23:07;;;;;;;6.32;3.92;;;10.40;99.90;;;;;;4986546;28;20033;-82
2021/09/02 00:25:38;;;;;;;7.63;4.07;;;10.40;99.90;;;;;;4990419;28;20034;-82
2021/09/02 00:28:30;;;;;;;;;;;10.40;99.90;;;;;;4995637;28;20128;-81
2021/09/02 00:30:55;;;;;;;;;;;10.40;99.90;;;;;;4964198;28;20384;-82
2021/09/02 00:33:21;;;;;;;7.63;4.10;;;10.40;99.90;;;;;;4985484;28;19987;-81
2021/09/02 00:35:47;;;;;;;4.53;3.78;;;10.30;99.90;;;;;;4988946;28;20042;-82
2021/09/02 00:38:13;;;;;;;4.18;3.42;;;10.30;99.90;;;;;;4979113;28;20088;-83
2021/09/02 00:40:39;;;;;;;6.63;3.92;;;10.30;99.90;;;;;;4985179;28;20139;-81
2021/09/02 00:43:05;;;;;;;6.88;3.63;;;10.30;99.90;;;;;;4991461;28;20551;-81
2021/09/02 00:45:32;;;;;;;6.20;4.00;;;10.30;99.90;;;;;;5000389;28;20091;-81
2021/09/02 00:47:58;;;;;;;6.97;4.70;;;10.30;99.90;;;;;;4976030;28;20041;-82
2021/09/02 00:50:24;;;;;;;8.40;4.60;;;10.30;99.90;;;;;;4983395;28;20030;-81
2021/09/02 00:52:49;;;;;;;6.43;4.22;;;10.30;99.90;;;;;;4965173;28;20038;-82
2021/09/02 00:55:15;;;;;;;7.85;3.97;;;10.30;99.90;;;;;;5003104;28;20061;-81
2021/09/02 00:57:41;;;;;;;6.25;4.28;;;10.30;99.90;;;;;;4974555;28;20039;-81
2021/09/02 01:00:13;;;;;;;6.38;4.50;;;10.20;99.90;;;;;;4983783;28;20160;-81
2021/09/02 01:02:41;;;;;;;5.50;4.22;;;10.20;99.90;;;;;;4995463;28;20397;-82
2021/09/02 01:05:08;;;;;;;6.68;3.78;;;10.20;99.90;;;;;;4968081;28;20048;-81
2021/09/02 01:07:34;;;;;;;6.97;4.72;;;10.20;99.90;;;;;;4985521;28;20493;-82
2021/09/02 01:10:01;;;;;;;6.13;4.25;;;10.20;99.90;;;;;;4979329;28;20034;-81
2021/09/02 01:12:37;;;;;;;5.72;3.88;;;10.20;99.90;;;;;;4987554;28;20027;-82
2021/09/02 01:15:09;;;;;;;5.70;3.95;;;10.20;99.90;;;;;;4987904;28;20057;-82
2021/09/02 01:17:35;;;;;;;5.72;3.90;;;10.20;99.90;;;;;;4983816;28;20334;-81
2021/09/02 01:20:02;;;;;;;6.20;4.03;;;10.20;99.90;;;;;;4957892;28;20061;-82
2021/09/02 01:22:29;;;;;;;6.97;4.20;;;10.20;99.90;;;;;;4984569;28;20469;-82
2021/09/02 01:25:00;;;;;;;6.65;4.18;;;10.20;99.90;;;;;;4983638;28;20034;-82
2021/09/02 01:27:27;;;;;;;9.48;4.47;;;10.20;99.90;;;;;;4996524;28;20555;-81
2021/09/02 01:29:58;;;;;;;5.20;3.42;;;10.10;99.90;;;;;;4983241;28;20033;-82
2021/09/02 01:32:32;;;;;;;5.93;4.03;;;10.10;99.90;;;;;;4971320;28;20030;-81
2021/09/02 01:34:59;;;;;;;6.43;4.00;;;10.10;99.90;;;;;;5001717;28;20027;-82
2021/09/02 01:37:26;;;;;;;7.45;3.92;;;10.10;99.90;;;;;;4996892;28;20542;-82
2021/09/02 01:39:53;;;;;;;7.15;4.25;;;10.00;99.90;;;;;;4987637;28;20472;-81
2021/09/02 01:42:20;;;;;;;5.60;3.83;;;10.00;99.90;;;;;;4982421;28;20049;-81
2021/09/02 01:44:46;;;;;;;6.57;4.35;;;10.00;99.90;;;;;;4991789;28;20052;-81
2021/09/02 01:47:23;;;;;;;5.85;4.20;;;10.00;99.90;;;;;;4968063;28;20039;-82
2021/09/02 01:49:50;;;;;;;6.30;3.92;;;10.00;99.90;;;;;;4976024;28;20026;-82
2021/09/02 01:52:15;;;;;;;5.95;4.03;;;10.00;99.90;;;;;;4981947;28;20403;-82
2021/09/02 01:54:41;;;;;;;6.00;4.22;;;10.00;99.90;;;;;;4990630;28;20117;-82
2021/09/02 01:57:08;;;;;;;5.53;3.88;;;10.00;99.90;;;;;;5003661;28;20026;-81
2021/09/02 01:59:34;;;;;;;7.75;3.83;;;10.00;99.90;;;;;;4969308;28;20061;-81
2021/09/02 02:02:00;;;;;;;6.93;4.13;;;10.00;99.90;;;;;;5000775;28;20092;-82
2021/09/02 02:04:26;;;;;;;7.13;4.78;;;10.00;99.90;;;;;;5001031;28;20126;-81
2021/09/02 02:06:51;;;;;;;6.68;4.45;;;10.00;99.90;;;;;;4959607;28;20044;-82
2021/09/02 02:09:17;;;;;;;6.63;4.60;;;10.00;99.90;;;;;;4984240;28;20034;-81
2021/09/02 02:11:43;;;;;;;7.00;4.25;;;9.90;99.90;;;;;;5003718;28;20064;-82
2021/09/02 02:14:08;;;;;;;5.90;4.13;;;10.00;99.90;;;;;;5004516;28;20030;-81
2021/09/02 02:16:34;;;;;;;7.00;4.28;;;9.90;99.90;;;;;;4983340;28;20037;-83
2021/09/02 02:19:00;;;;;;;8.23;4.68;;;9.90;99.90;;;;;;4965657;28;20034;-82
2021/09/02 02:21:25;;;;;;;6.80;4.53;;;10.00;99.90;;;;;;4971195;28;20073;-82
2021/09/02 02:23:51;;;;;;;7.78;4.20;;;9.90;99.90;;;;;;5004286;28;20037;-83
2021/09/02 02:26:16;;;;;;;7.30;3.90;;;9.90;99.90;;;;;;5011792;28;20038;-82
2021/09/02 02:28:42;;;;;;;7.32;5.00;;;9.90;99.90;;;;;;4982025;28;20034;-83
2021/09/02 02:31:08;;;;;;;7.65;4.28;;;9.90;99.90;;;;;;4984068;28;20488;-82
2021/09/02 02:33:33;;;;;;;7.10;4.35;;;9.90;99.90;;;;;;4971653;28;20128;-82
2021/09/02 02:35:59;;;;;;;7.47;4.38;;;9.90;99.90;;;;;;4993355;28;20030;-82
2021/09/02 02:38:25;;;;;;;6.10;3.55;;;9.90;99.90;;;;;;4979894;28;20033;-82
2021/09/02 02:40:50;;;;;;;6.25;3.78;;;9.90;99.90;;;;;;4983293;28;20041;-81
2021/09/02 02:43:16;;;;;;;6.13;4.15;;;9.90;99.90;;;;;;4986694;28;20049;-81
2021/09/02 02:45:42;;;;;;;5.38;3.75;;;9.90;99.90;;;;;;4978573;28;20034;-82
2021/09/02 02:48:08;;;;;;;6.15;4.35;;;9.80;99.90;;;;;;4955002;28;20121;-82
2021/09/02 02:50:33;;;;;;;5.75;3.95;;;9.80;99.90;;;;;;4969131;28;20034;-82
2021/09/02 02:52:59;;;;;;;7.40;4.40;;;9.80;99.90;;;;;;4967969;28;20034;-82
2021/09/02 02:55:25;;;;;;;6.45;4.40;;;9.80;99.90;;;;;;4959825;28;20027;-82
2021/09/02 02:57:53;;;;;;;5.20;4.00;;;9.80;99.90;;;;;;4946518;28;20041;-82
2021/09/02 03:00:19;;;;;;;5.40;3.35;;;9.80;99.90;;;;;;4998290;28;20125;-81
2021/09/02 03:02:45;;;;;;;6.35;3.97;;;9.70;99.90;;;;;;4983403;28;20117;-82
2021/09/02 03:05:11;;;;;;;5.75;3.55;;;9.70;99.90;;;;;;4976542;28;20623;-82
2021/09/02 03:07:37;;;;;;;5.97;4.00;;;9.70;99.90;;;;;;4996341;28;20040;-83
2021/09/02 03:10:05;;;;;;;5.75;3.72;;;9.70;99.90;;;;;;4957896;28;20030;-82
2021/09/02 03:12:31;;;;;;;5.65;3.50;;;9.60;99.90;;;;;;5009721;28;20088;-82
2021/09/02 03:14:56;;;;;;;5.15;3.63;;;9.60;99.90;;;;;;4995761;28;20027;-81
2021/09/02 03:17:22;;;;;;;5.28;3.50;;;9.60;99.90;;;;;;4994476;28;20647;-82
2021/09/02 03:19:48;;;;;;;4.30;3.53;;;9.50;99.90;;;;;;4959339;28;20447;-81
2021/09/02 03:22:13;;;;;;;6.53;3.85;;;9.60;99.90;;;;;;4978548;28;20553;-81
2021/09/02 03:24:39;;;;;;;7.40;4.15;;;9.50;99.90;;;;;;5004089;28;20033;-82
2021/09/02 03:27:05;;;;;;;6.22;4.53;;;9.50;99.90;;;;;;4984233;28;20068;-82
2021/09/02 03:29:31;;;;;;;5.70;4.18;;;9.50;99.90;;;;;;5001735;28;20129;-82
2021/09/02 03:31:56;;;;;;;7.00;4.55;;;9.50;99.90;;;;;;4995410;28;20165;-82
2021/09/02 03:34:22;;;;;;;5.35;3.67;;;9.50;99.90;;;;;;4986483;28;20053;-81
2021/09/02 03:36:50;;;;;;;5.15;3.38;;;9.40;99.90;;;;;;5003155;28;20041;-81
2021/09/02 03:39:16;;;;;;;4.72;3.42;;;9.40;99.90;;;;;;4963386;28;20137;-82
2021/09/02 03:41:42;;;;;;;6.20;3.60;;;9.40;99.90;;;;;;4984683;28;20034;-81
2021/09/02 03:44:08;;;;;;;8.50;4.10;;;9.40;99.90;;;;;;4984120;28;20129;-81
2021/09/02 03:46:34;;;;;;;6.00;3.90;;;9.40;99.90;;;;;;4963642;28;20030;-81
2021/09/02 03:48:59;;;;;;;6.55;3.97;;;9.40;99.90;;;;;;4988895;28;20507;-82
2021/09/02 03:51:25;;;;;;;7.60;4.45;;;9.30;99.90;;;;;;4966233;28;20114;-81
2021/09/02 03:53:51;;;;;;;7.03;3.95;;;9.30;99.90;;;;;;4963608;28;20449;-81
2021/09/02 03:56:17;;;;;;;5.10;3.65;;;9.30;99.90;;;;;;4968661;28;20068;-81
2021/09/02 03:58:42;;;;;;;9.23;5.32;;;9.20;99.90;;;;;;4973866;28;20041;-82
2021/09/02 04:01:08;;;;;;;5.60;4.40;;;9.20;99.90;;;;;;4980891;28;20038;-81
2021/09/02 04:03:34;;;;;;;7.82;4.80;;;9.30;99.90;;;;;;4986876;28;20038;-82
2021/09/02 04:06:00;;;;;;;7.40;4.95;;;9.30;99.90;;;;;;4974699;28;20070;-82
2021/09/02 04:08:25;;;;;;;8.57;4.85;;;9.30;99.90;;;;;;4987167;28;20068;-81
2021/09/02 04:10:51;;;;;;;7.28;4.88;;;9.30;99.90;;;;;;4964333;28;20639;-81
2021/09/02 04:13:17;;;;;;;8.05;5.03;;;9.30;99.90;;;;;;4984146;28;20035;-81
2021/09/02 04:15:43;;;;;;;7.03;4.60;;;9.30;99.90;;;;;;5004649;28;20089;-81
2021/09/02 04:18:09;;;;;;;8.98;4.65;;;9.20;99.90;;;;;;4976592;28;20034;-82
2021/09/02 04:20:35;;;;;;;7.32;5.25;;;9.20;99.90;;;;;;4962958;28;20068;-82
2021/09/02 04:23:00;;;;;;;6.78;4.50;;;9.20;99.90;;;;;;4981317;28;20516;-82
2021/09/02 04:25:26;;;;;;;6.75;4.68;;;9.10;99.90;;;;;;4993367;28;20401;-83
2021/09/02 04:27:52;;;;;;;8.43;4.85;;;9.10;99.90;;;;;;4956797;28;20042;-81
2021/09/02 04:30:18;;;;;;;7.80;5.07;;;9.10;99.90;;;;;;4984300;28;20034;-81
2021/09/02 04:32:44;;;;;;;9.32;4.95;;;9.10;99.90;;;;;;4986077;28;20031;-81
2021/09/02 04:35:11;;;;;;;7.38;4.90;;;9.10;99.90;;;;;;5000166;28;20536;-81
2021/09/02 04:37:43;;;;;;;8.00;4.97;;;9.10;99.90;;;;;;4961621;28;20392;-81
2021/09/02 04:40:10;;;;;;;7.22;4.75;;;9.00;99.90;;;;;;4987842;28;20168;-84
2021/09/02 04:42:35;;;;;;;10.75;5.30;;;9.10;99.90;;;;;;4978499;28;20123;-82
2021/09/02 04:45:03;;;;;;;8.43;6.32;;;9.10;99.90;;;;;;4993428;28;20081;-82
2021/09/02 04:47:29;;;;;;;10.40;4.93;;;9.10;99.90;;;;;;4950561;28;20079;-81
2021/09/02 04:49:55;;;;;;;10.45;5.70;;;9.00;99.90;;;;;;4976196;28;20122;-82
2021/09/02 04:52:21;;;;;;;10.88;7.10;;;9.00;99.90;;;;;;4973106;28;20030;-82
2021/09/02 04:54:47;;;;;;;10.55;6.63;;;9.10;99.90;;;;;;4968261;28;20120;-82
2021/09/02 04:57:18;;;;;;;11.95;6.78;;;9.10;99.90;;;;;;4986692;28;20035;-82
2021/09/02 04:59:43;;;;;;;10.23;6.40;;;9.10;99.90;;;;;;4975677;28;20467;-83
2021/09/02 05:02:09;;;;;;;8.00;5.38;;;9.20;99.90;;;;;;4985583;28;20113;-82
2021/09/02 05:04:35;;;;;;;7.18;5.10;;;9.20;99.90;;;;;;4981078;28;20064;-82
2021/09/02 05:07:00;;;;;;;6.40;3.63;;;9.30;99.90;;;;;;5000288;28;20045;-82
2021/09/02 05:09:26;;;;;;;4.82;3.47;;;9.30;99.90;;;;;;4985001;28;20065;-82
2021/09/02 05:11:52;;;;;;;4.80;3.42;;;9.30;99.90;;;;;;4958090;28;20085;-83
2021/09/02 05:14:17;;;;;;;11.82;4.18;;;9.30;99.90;;;;;;4959637;28;20488;-81
2021/09/02 05:16:43;;;;;;;6.30;4.18;;;9.30;99.90;;;;;;4956834;28;20124;-81
2021/09/02 05:19:09;;;;;;;6.38;4.20;;;9.30;99.90;;;;;;4995534;28;20568;-81
2021/09/02 05:21:34;;;;;;;6.68;4.55;;;9.30;99.90;;;;;;4980118;28;20460;-82
2021/09/02 05:24:00;;;;;;;6.63;4.95;;;9.40;99.90;;;;;;4998371;28;20034;-83
2021/09/02 05:26:26;;;;;;;6.50;4.15;;;9.50;99.90;;;;;;4969544;28;20045;-82
2021/09/02 05:28:52;;;;;;;6.60;4.85;;;9.40;99.90;;;;;;4984118;28;20035;-82
2021/09/02 05:31:17;;;;;;;8.35;5.78;;;9.50;99.90;;;;;;4983635;28;20027;-83
2021/09/02 05:33:43;;;;;;;8.98;6.13;;;9.60;99.90;;;;;;5001397;28;20188;-81
2021/09/02 05:36:10;;;;;;;8.82;6.55;;;9.60;99.90;;;;;;5001986;28;20026;-82
2021/09/02 05:38:35;;;;;;;8.43;5.07;;;9.70;99.90;;;;;;4985868;28;20404;-82
2021/09/02 05:41:01;;;;;;;6.15;4.97;;;9.80;99.90;;;;;;4964229;28;20034;-82
2021/09/02 05:43:27;;;;;;;7.60;5.28;;;9.80;99.90;;;;;;4981676;28;20484;-82
2021/09/02 05:45:53;;;;;;;7.22;5.75;;;9.90;99.90;;;;;;4952636;28;20035;-81
2021/09/02 05:48:19;;;;;;;8.63;6.05;;;9.90;99.90;;;;;;5948903;23;20157;-81
2021/09/02 05:50:44;;;;;;;10.05;6.63;;;10.00;99.90;;;;;;4968715;28;20066;-81
2021/09/02 05:53:10;;;;;;;6.85;5.38;;;10.00;99.90;;;;;;4973230;28;20030;-81
2021/09/02 05:55:37;;;;;;;8.98;5.53;;;10.10;99.90;;;;;;4968711;28;20035;-81
2021/09/02 05:58:03;;;;;;;10.30;6.68;;;10.10;99.90;;;;;;4982529;28;20039;-82
2021/09/02 06:00:29;;;;;;;10.27;6.35;;;10.10;99.90;;;;;;4968498;28;20038;-81
2021/09/02 06:02:55;;;;;;;9.32;5.60;;;10.30;99.90;;;;;;4975018;28;20040;-81
2021/09/02 06:05:20;;;;;;;8.63;4.75;;;10.60;99.90;;;;;;4971747;28;20045;-81
2021/09/02 06:07:46;;;;;;;5.32;4.15;;;10.90;99.90;;;;;;4964457;28;20389;-81
2021/09/02 06:10:12;;;;;;;5.22;4.10;;;11.20;99.90;;;;;;4979430;28;20038;-81
2021/09/02 06:12:38;;;;;;;5.40;3.83;;;11.50;99.90;;;;;;4957566;28;20039;-83
2021/09/02 06:15:09;;;;;;;3.83;3.20;;;11.80;99.90;;;;;;4977356;28;20036;-81
2021/09/02 06:17:35;;;;;;;5.82;3.92;;;12.10;99.90;;;;;;4963514;28;20121;-81
2021/09/02 06:20:01;;;;;;;4.68;3.67;;;12.40;99.90;;;;;;4989984;28;20377;-82
2021/09/02 06:22:27;;;;;;;4.68;3.60;;;12.70;99.90;;;;;;4976756;28;20050;-81
2021/09/02 06:24:53;;;;;;;7.13;3.65;;;12.90;99.90;;;;;;5000083;28;20033;-82
2021/09/02 06:27:19;;;;;;;5.05;3.85;;;13.10;99.90;;;;;;4962171;28;20034;-82
2021/09/02 06:29:44;;;;;;;5.47;3.63;;;13.40;99.90;;;;;;4965121;28;20042;-82
2021/09/02 06:32:10;;;;;;;7.32;3.80;;;13.50;99.90;;;;;;4990625;28;20424;-82
2021/09/02 06:34:36;;;;;;;5.00;3.80;;;13.80;99.90;;;;;;4965564;28;20385;-81
2021/09/02 06:37:01;;;;;;;5.43;3.97;;;14.00;99.90;;;;;;4989145;28;20050;-81
2021/09/02 06:39:27;;;;;;;3.45;3.00;;;14.20;99.90;;;;;;4940982;28;20062;-82
2021/09/02 06:41:53;;;;;;;4.63;3.65;;;14.40;99.90;;;;;;4951505;28;20125;-82
2021/09/02 06:44:18;;;;;;;4.15;3.60;;;14.60;99.90;;;;;;4996150;28;20026;-82
2021/09/02 06:46:44;;;;;;;7.57;4.57;;;14.70;99.90;;;;;;4997184;28;20177;-82
2021/09/02 06:49:10;;;;;;;5.88;4.65;;;14.90;99.90;;;;;;4972638;28;20069;-83
2021/09/02 06:51:37;;;;;;;8.60;5.10;;;15.10;99.90;;;;;;4968597;28;20022;-82
2021/09/02 06:54:03;;;;;;;8.50;5.60;;;15.30;99.90;;;;;;5012094;28;20112;-82
2021/09/02 06:56:29;;;;;;;9.10;5.72;;;15.60;99.90;;;;;;4986701;28;20068;-83
2021/09/02 06:58:55;;;;;;;12.32;6.50;;;16.00;99.90;;;;;;4971663;28;20485;-82
2021/09/02 07:01:20;;;;;;;12.77;7.72;;;16.30;99.90;;;;;;4988627;28;20041;-82
2021/09/02 07:03:46;;;;;;;15.30;9.27;;;16.70;99.90;;;;;;4986879;28;20042;-82
2021/09/02 07:06:12;;;;;;;14.30;8.75;;;17.00;99.90;;;;;;4995978;28;20045;-82
2021/09/02 07:08:37;;;;;;;14.00;8.23;;;17.40;99.90;;;;;;4963801;28;20030;-83
2021/09/02 07:11:04;;;;;;;14.63;8.15;;;17.70;99.90;;;;;;4990442;28;20050;-83
2021/09/02 07:13:31;;;;;;;13.18;8.15;;;18.10;99.90;;;;;;4969040;28;20031;-82
2021/09/02 07:15:56;;;;;;;12.85;8.32;;;18.30;99.90;;;;;;4955611;28;20065;-82
2021/09/02 07:18:22;;;;;;;14.32;7.60;;;18.60;99.90;;;;;;4982076;28;20025;-83
2021/09/02 07:20:48;;;;;;;13.73;8.10;;;18.80;99.90;;;;;;5001314;28;20041;-83
2021/09/02 07:23:14;;;;;;;11.23;6.75;;;19.10;99.90;;;;;;4979106;28;20132;-82
2021/09/02 07:25:40;;;;;;;12.10;7.43;;;19.40;99.90;;;;;;4987965;28;20034;-82
2021/09/02 07:28:05;;;;;;;12.48;7.18;;;19.60;99.90;;;;;;4982695;28;20117;-82
2021/09/02 07:30:31;;;;;;;12.30;7.63;;;19.80;99.90;;;;;;4983822;28;20069;-82
2021/09/02 07:32:58;;;;;;;12.73;7.53;;;20.00;99.90;;;;;;4985268;28;20081;-82
2021/09/02 07:35:24;;;;;;;12.45;7.78;;;20.20;99.90;;;;;;4971996;28;20503;-84
2021/09/02 07:37:49;;;;;;;13.35;7.90;;;20.40;99.90;;;;;;4976006;28;20121;-82
2021/09/02 07:40:15;;;;;;;11.50;7.43;;;20.40;99.90;;;;;;5000177;28;20517;-82
2021/09/02 07:42:41;;;;;;;15.55;8.40;;;20.40;99.90;;;;;;4967696;28;20041;-82
2021/09/02 07:45:08;;;;;;;12.95;7.85;;;20.30;99.90;;;;;;4989020;28;20030;-83
2021/09/02 07:47:36;;;;;;;13.63;8.15;;;20.30;99.90;;;;;;5001737;28;20297;-82
2021/09/02 07:50:05;;;;;;;13.77;7.75;;;20.30;99.90;;;;;;5002063;28;20305;-82
2021/09/02 07:52:32;;;;;;;13.13;8.38;;;20.10;99.90;;;;;;4982354;28;20049;-82
2021/09/02 07:54:58;;;;;;;10.88;7.47;;;20.10;99.90;;;;;;4986996;28;20054;-82
2021/09/02 07:57:23;;;;;;;12.95;8.18;;;19.90;99.90;;;;;;4979200;28;20444;-82
2021/09/02 07:59:49;;;;;;;12.38;8.27;;;19.80;99.90;;;;;;4951493;28;20034;-82
2021/09/02 08:02:15;;;;;;;13.75;7.40;;;19.70;99.90;;;;;;4965340;28;20037;-83
2021/09/02 08:04:40;;;;;;;11.60;7.38;;;19.60;99.90;;;;;;5008052;28;20033;-84
2021/09/02 08:07:06;;;;;;;15.30;8.65;;;19.50;99.90;;;;;;4963595;28;20042;-82
2021/09/02 08:09:32;;;;;;;11.50;7.53;;;19.40;99.90;;;;;;4968877;28;20034;-82
2021/09/02 08:11:58;;;;;;;13.60;8.32;;;19.30;99.90;;;;;;4962533;28;20037;-82
2021/09/02 08:14:24;;;;;;;12.88;7.57;;;19.20;99.90;;;;;;5005962;28;20034;-82
2021/09/02 08:16:50;;;;;;;15.25;8.20;;;19.10;99.90;;;;;;4967985;28;20545;-83
2021/09/02 08:19:15;;;;;;;10.93;7.47;;;19.00;99.90;;;;;;4982450;28;20408;-82
2021/09/02 08:21:43;;;;;;;17.85;9.30;;;18.90;99.90;;;;;;4988224;28;20124;-83
2021/09/02 08:24:09;;;;;;;16.50;8.90;;;18.80;99.90;;;;;;4986258;28;20058;-82
2021/09/02 08:26:35;;;;;;;12.27;8.07;;;18.80;99.90;;;;;;4973078;28;20034;-83
2021/09/02 08:29:01;;;;;;;16.15;9.57;;;18.70;99.90;;;;;;4987069;28;20034;-82
2021/09/02 08:31:28;;;;;;;15.82;8.82;;;18.70;99.90;;;;;;4990075;28;20033;-82
2021/09/02 08:33:55;;;;;;;15.13;7.97;;;18.70;99.90;;;;;;4966471;28;20516;-82
2021/09/02 08:36:20;;;;;;;14.60;8.70;;;18.80;99.90;;;;;;4987483;28;20035;-83
2021/09/02 08:38:49;;;;;;;15.82;8.38;;;18.70;99.90;;;;;;4985867;28;20034;-83
2021/09/02 08:41:15;;;;;;;14.73;8.57;;;18.80;99.90;;;;;;4992454;28;20574;-82
2021/09/02 08:43:42;;;;;;;14.88;9.40;;;18.80;99.90;;;;;;4977983;28;20044;-82
2021/09/02 08:46:08;;;;;;;11.57;7.65;;;18.60;99.90;;;;;;4975651;28;20097;-82
2021/09/02 08:48:37;;;;;;;11.57;7.35;;;18.40;99.90;;;;;;4964318;28;20219;-82
2021/09/02 08:51:04;;;;;;;11.70;7.18;;;18.40;99.90;;;;;;4985479;28;20051;-82
2021/09/02 08:53:30;;;;;;;12.05;7.60;;;18.30;99.90;;;;;;4989925;28;20098;-83
2021/09/02 08:55:56;;;;;;;13.07;7.38;;;18.20;99.90;;;;;;4984787;28;20054;-83
2021/09/02 08:58:22;;;;;;;11.60;7.40;;;18.20;99.90;;;;;;4952835;28;20034;-82
2021/09/02 09:00:48;;;;;;;12.85;7.25;;;18.20;99.90;;;;;;4988092;28;20083;-84
2021/09/02 09:03:18;;;;;;;14.95;8.00;;;18.20;99.90;;;;;;4987883;28;20121;-81
2021/09/02 09:05:51;;;;;;;14.05;8.15;;;18.20;99.90;;;;;;4973822;28;20049;-81
2021/09/02 09:08:17;;;;;;;14.35;9.00;;;18.30;99.90;;;;;;4983602;28;20065;-83
2021/09/02 09:10:43;;;;;;;10.27;7.75;;;18.20;99.90;;;;;;4959679;28;20034;-83
2021/09/02 09:13:09;;;;;;;15.57;6.90;;;18.20;99.90;;;;;;5003558;28;20070;-83
2021/09/02 09:15:41;;;;;;;10.95;7.60;;;18.20;99.90;;;;;;5002011;28;20030;-82
2021/09/02 09:18:24;;;;;;;10.20;6.22;;;18.20;99.90;;;;;;5003166;28;20405;-82
2021/09/02 09:21:08;;;;;;;11.70;6.28;;;18.20;99.90;;;;;;4975200;28;20038;-82
2021/09/02 09:23:53;;;;;;;10.43;6.60;;;18.20;99.90;;;;;;4962296;28;20038;-82
2021/09/02 09:26:20;;;;;;;9.75;6.45;;;18.20;99.90;;;;;;5007790;28;20031;-82
2021/09/02 09:28:45;;;;;;;9.57;6.38;;;18.40;99.90;;;;;;4984572;28;20412;-82
2021/09/02 09:31:35;;;;;;;10.50;6.97;;;18.30;99.90;;;;;;4973621;28;20038;-82
2021/09/02 09:34:04;;;;;;;11.27;6.18;;;18.40;99.90;;;;;;4995198;28;20037;-82
2021/09/02 09:36:32;;;;;;;9.45;6.22;;;18.40;99.90;;;;;;4997813;28;20034;-82
2021/09/02 09:38:58;;;;;;;13.40;6.10;;;18.40;99.90;;;;;;5000783;28;20090;-81
2021/09/02 09:41:34;;;;;;;10.23;5.68;;;18.50;99.90;;;;;;4989407;28;20050;-82
2021/09/02 09:44:18;;;;;;;12.07;6.80;;;18.40;99.90;;;;;;4976820;28;20094;-82
2021/09/02 09:47:13;;;;;;;11.93;5.60;;;18.40;99.90;;;;;;5000248;28;20038;-83
2021/09/02 09:49:46;;;;;;;8.88;5.80;;;18.40;99.90;;;;;;5008735;28;20045;-83
2021/09/02 09:52:32;;;;;;;9.10;5.63;;;18.40;99.90;;;;;;4980451;28;20092;-82
2021/09/02 09:55:03;;;;;;;9.70;6.13;;;18.50;99.90;;;;;;5000579;28;20296;-82
2021/09/02 09:57:30;;;;;;;7.22;5.32;;;18.50;99.90;;;;;;5005306;28;20512;-83
2021/09/02 10:00:01;;;;;;;10.52;6.05;;;18.60;99.90;;;;;;4986130;28;20053;-81
2021/09/02 10:02:38;;;;;;;9.50;6.03;;;18.60;99.90;;;;;;4974780;28;20038;-81
2021/09/02 10:05:06;;;;;;;10.27;5.72;;;18.70;99.90;;;;;;4994938;28;20049;-82
2021/09/02 10:07:33;;;;;;;9.40;6.03;;;18.80;99.90;;;;;;4987862;28;20037;-81
2021/09/02 10:09:59;;;;;;;10.68;6.82;;;18.80;99.90;;;;;;4995833;28;20034;-82
2021/09/02 10:12:25;;;;;;;11.50;6.22;;;18.80;99.90;;;;;;4969613;28;20018;-82
2021/09/02 10:14:52;;;;;;;10.18;6.30;;;18.70;99.90;;;;;;4957052;28;20030;-82
2021/09/02 10:17:18;;;;;;;9.35;6.28;;;18.80;99.90;;;;;;4998174;28;20038;-81
2021/09/02 10:19:46;;;;;;;7.35;5.72;;;18.90;99.90;;;;;;5011129;28;20026;-83
2021/09/02 10:22:12;;;;;;;9.32;5.50;;;18.90;99.90;;;;;;4974849;28;20037;-82
2021/09/02 10:24:40;;;;;;;7.55;5.38;;;18.90;99.90;;;;;;4987951;28;20492;-82
2021/09/02 10:27:21;;;;;;;7.20;4.80;;;19.00;99.90;;;;;;4984537;28;20030;-82
2021/09/02 10:29:47;;;;;;;8.40;4.90;;;19.00;99.90;;;;;;5004341;28;20504;-81
2021/09/02 10:32:28;;;;;;;16.85;5.25;;;19.00;99.90;;;;;;4990598;28;20098;-82
2021/09/02 10:35:14;;;;;;;8.00;5.05;;;18.90;99.90;;;;;;4992369;28;20058;-82
2021/09/02 10:37:41;;;;;;;9.48;5.13;;;18.90;99.90;;;;;;5005290;28;20061;-82
2021/09/02 10:40:16;;;;;;;6.85;4.80;;;18.80;99.90;;;;;;5014413;28;20022;-82
2021/09/02 10:42:52;;;;;;;7.18;4.55;;;18.90;99.90;;;;;;4993639;28;20072;-82
2021/09/02 10:45:27;;;;;;;8.73;4.90;;;18.90;99.90;;;;;;4993880;28;20504;-83
2021/09/02 10:48:14;;;;;;;6.28;4.65;;;19.00;99.90;;;;;;4989440;28;20521;-82
2021/09/02 10:50:42;;;;;;;6.80;4.60;;;19.10;99.90;;;;;;5005624;28;20037;-82
2021/09/02 10:53:18;;;;;;;8.02;5.45;;;19.10;99.90;;;;;;4997607;28;20053;-82
2021/09/02 10:55:55;;;;;;;7.93;4.65;;;19.20;99.90;;;;;;5000230;28;20027;-83
2021/09/02 10:58:49;;;;;;;6.95;4.60;;;19.30;99.90;;;;;;5007316;28;20025;-82
2021/09/02 11:01:41;;;;;;;5.95;4.20;;;19.30;99.90;;;;;;5001140;28;20043;-82
2021/09/02 11:04:12;;;;;;;5.65;4.10;;;19.40;99.90;;;;;;5009835;28;20149;-81
2021/09/02 11:06:48;;;;;;;7.18;4.22;;;19.50;99.90;;;;;;4991330;28;20631;-83
2021/09/02 11:09:33;;;;;;;8.38;4.47;;;19.50;99.90;;;;;;4990031;28;20058;-82
2021/09/02 11:12:00;;;;;;;7.60;4.70;;;19.60;99.90;;;;;;5009322;28;20081;-82
2021/09/02 11:14:26;;;;;;;9.52;4.03;;;19.70;99.90;;;;;;4985054;28;20057;-82
2021/09/02 11:16:52;;;;;;;6.43;3.92;;;19.60;99.90;;;;;;4999796;28;20125;-81
2021/09/02 11:19:32;;;;;;;5.32;3.90;;;19.70;99.90;;;;;;5000459;28;20034;-81
2021/09/02 11:22:05;;;;;;;4.30;3.50;;;19.80;99.90;;;;;;5008837;28;20048;-83
2021/09/02 11:24:43;;;;;;;6.15;3.80;;;19.80;99.90;;;;;;4987387;28;20072;-81
2021/09/02 11:27:11;;;;;;;7.18;4.35;;;19.90;99.90;;;;;;4982907;28;20038;-82
2021/09/02 11:29:37;;;;;;;6.65;4.43;;;19.90;99.90;;;;;;4998737;28;20057;-82
2021/09/02 11:32:11;;;;;;;4.53;3.53;;;19.90;99.90;;;;;;4985941;28;20038;-82
2021/09/02 11:34:41;;;;;;;5.47;3.33;;;19.90;99.90;;;;;;4996443;28;20125;-82
2021/09/02 11:37:07;;;;;;;5.28;3.35;;;19.90;99.90;;;;;;5007112;28;20049;-83
2021/09/02 11:39:38;;;;;;;4.70;3.40;;;20.00;99.90;;;;;;4990498;28;20062;-82
2021/09/02 11:42:13;;;;;;;7.45;3.78;;;20.10;99.90;;;;;;4991148;28;20065;-82
2021/09/02 11:44:40;;;;;;;4.78;3.33;;;20.30;99.90;;;;;;4994083;28;20034;-83
2021/09/02 11:47:07;;;;;;;5.85;3.90;;;20.40;99.90;;;;;;5010639;23;20042;-82
2021/09/02 11:49:34;;;;;;;3.88;3.10;;;20.40;99.90;;;;;;4992809;28;20760;-80
2021/09/02 11:52:01;;;;;;;5.20;2.95;;;20.40;99.90;;;;;;4990759;28;20031;-79
2021/09/02 11:54:27;;;;;;;5.15;3.25;;;20.50;99.90;;;;;;4992928;28;20042;-80
2021/09/02 11:56:53;;;;;;;5.35;3.78;;;20.60;99.90;;;;;;4993325;28;20151;-79
2021/09/02 11:59:19;;;;;;;3.92;2.75;;;20.70;99.90;;;;;;4988505;28;20041;-79
2021/09/02 12:01:53;;;;;;;3.28;2.97;;;20.80;99.90;;;;;;4989724;28;20534;-79
2021/09/02 12:04:24;;;;;;;4.95;2.72;;;20.90;99.90;;;;;;4991152;28;21414;-79
2021/09/02 12:06:53;;;;;;;4.25;2.80;;;21.00;99.90;;;;;;4973144;28;20479;-79
2021/09/02 12:09:21;;;;;;;4.30;2.72;;;21.10;99.90;;;;;;4990902;28;20117;-80
2021/09/02 12:11:50;;;;;;;4.07;3.15;;;21.30;99.90;;;;;;4993451;28;20026;-80
2021/09/02 12:14:23;;;;;;;3.80;2.83;;;21.30;99.90;;;;;;5004512;28;20085;-79
2021/09/02 12:17:01;;;;;;;4.18;3.08;;;21.30;99.90;;;;;;4989509;28;20677;-81
2021/09/02 12:19:28;;;;;;;4.63;2.63;;;21.30;99.90;;;;;;4984952;28;20034;-79
2021/09/02 12:22:09;;;;;;;5.38;2.97;;;21.40;99.90;;;;;;4993037;28;20034;-80
2021/09/02 12:24:35;;;;;;;4.20;3.03;;;21.50;99.90;;;;;;4974208;28;20041;-80
2021/09/02 12:27:01;;;;;;;4.35;2.78;;;21.40;99.90;;;;;;4970380;28;20563;-78
2021/09/02 12:29:26;;;;;;;3.78;2.60;;;21.40;99.90;;;;;;4974755;28;20069;-80
2021/09/02 12:31:54;;;;;;;4.50;3.13;;;21.60;99.90;;;;;;4991719;28;20445;-79
2021/09/02 12:34:30;;;;;;;4.65;3.13;;;21.70;99.90;;;;;;4992868;28;20037;-79
2021/09/02 12:37:03;;;;;;;4.10;3.00;;;21.80;99.90;;;;;;4989577;28;20030;-79
2021/09/02 12:39:34;;;;;;;4.63;3.28;;;21.90;99.90;;;;;;4987251;28;20037;-80
2021/09/02 12:42:05;;;;;;;5.13;3.05;;;21.90;98.80;;;;;;4994734;28;20057;-80
2021/09/02 12:44:33;;;;;;;3.97;2.83;;;21.80;99.30;;;;;;4989302;28;20053;-80
2021/09/02 12:47:12;;;;;;;4.38;2.75;;;21.70;99.90;;;;;;4985435;28;20095;-79
2021/09/02 12:49:37;;;;;;;6.30;3.58;;;21.60;98.40;;;;;;4988567;28;20416;-79
2021/09/02 12:52:13;;;;;;;3.63;2.65;;;21.60;97.90;;;;;;4986113;28;20035;-79